createdAt,value
2019-05-18T00:01:39.104Z,3.90
2019-05-18T00:04:08.915Z,4.20
2019-05-18T00:06:38.453Z,4.13
2019-05-18T00:09:08.591Z,3.97
2019-05-18T00:11:38.111Z,4.40
2019-05-18T00:14:07.736Z,4.43
2019-05-18T00:16:37.370Z,3.90
2019-05-18T00:19:13.075Z,3.87
2019-05-18T00:21:42.648Z,4.33
2019-05-18T00:24:12.198Z,4.00
2019-05-18T00:26:41.962Z,4.40
2019-05-18T00:29:11.689Z,4.00
2019-05-18T00:31:41.359Z,4.40
2019-05-18T00:34:10.919Z,4.07
2019-05-18T00:36:40.684Z,3.77
2019-05-18T00:39:10.398Z,4.17
2019-05-18T00:41:39.998Z,4.33
2019-05-18T00:44:09.820Z,5.53
2019-05-18T00:46:39.456Z,3.90
2019-05-18T00:49:08.997Z,4.50
2019-05-18T00:51:38.840Z,4.50
2019-05-18T00:54:08.573Z,4.67
2019-05-18T00:56:38.248Z,4.60
2019-05-18T00:59:08.025Z,4.33
2019-05-18T01:01:37.547Z,4.80
2019-05-18T01:04:07.292Z,4.70
2019-05-18T01:06:36.864Z,4.77
2019-05-18T01:09:07.674Z,4.33
2019-05-18T01:11:37.444Z,4.07
2019-05-18T01:14:07.155Z,4.30
2019-05-18T01:16:36.693Z,4.13
2019-05-18T01:19:06.482Z,4.40
2019-05-18T01:21:36.189Z,4.27
2019-05-18T01:24:06.038Z,4.50
2019-05-18T01:26:35.846Z,4.80
2019-05-18T01:29:08.075Z,4.30
2019-05-18T01:31:37.797Z,4.37
2019-05-18T01:34:07.556Z,4.50
2019-05-18T01:36:37.419Z,4.77
2019-05-18T01:39:08.100Z,4.70
2019-05-18T01:41:37.863Z,4.70
2019-05-18T01:44:07.652Z,4.90
2019-05-18T01:46:37.436Z,4.50
2019-05-18T01:49:07.108Z,4.63
2019-05-18T01:51:36.899Z,4.93
2019-05-18T01:54:06.778Z,4.63
2019-05-18T01:56:36.565Z,4.53
2019-05-18T01:59:06.112Z,4.57
2019-05-18T02:01:35.860Z,4.90
2019-05-18T02:04:05.476Z,5.23
2019-05-18T02:06:35.165Z,5.00
2019-05-18T02:09:07.295Z,4.50
2019-05-18T02:11:37.464Z,4.90
2019-05-18T02:14:07.176Z,4.30
2019-05-18T02:16:36.743Z,6.67
2019-05-18T02:19:06.358Z,4.93
2019-05-18T02:21:36.121Z,4.80
2019-05-18T02:24:05.668Z,5.00
2019-05-18T02:26:54.231Z,5.63
2019-05-18T02:29:23.783Z,5.10
2019-05-18T02:31:53.521Z,5.13
2019-05-18T02:34:23.004Z,4.67
2019-05-18T02:36:52.566Z,4.83
2019-05-18T02:39:22.202Z,5.10
2019-05-18T02:42:10.754Z,5.23
2019-05-18T02:44:40.466Z,5.30
2019-05-18T02:47:10.010Z,4.93
2019-05-18T02:49:39.523Z,5.33
2019-05-18T02:52:09.195Z,4.90
2019-05-18T02:54:38.736Z,4.93
2019-05-18T02:57:08.467Z,4.97
2019-05-18T02:59:37.958Z,5.10
2019-05-18T03:02:07.652Z,5.90
2019-05-18T03:04:37.455Z,4.97
2019-05-18T03:07:07.009Z,5.33
2019-05-18T03:09:36.600Z,5.17
2019-05-18T03:12:06.261Z,4.83
2019-05-18T03:14:36.095Z,5.07
2019-05-18T03:17:05.822Z,4.87
2019-05-18T03:19:35.420Z,5.13
2019-05-18T03:22:05.321Z,5.53
2019-05-18T03:24:34.936Z,5.43
2019-05-18T03:27:04.858Z,5.27
2019-05-18T03:29:34.367Z,5.73
2019-05-18T03:32:03.936Z,5.50
2019-05-18T03:34:33.500Z,5.87
2019-05-18T03:37:03.044Z,5.60
2019-05-18T03:39:32.635Z,6.27
2019-05-18T03:42:02.256Z,6.50
2019-05-18T03:44:31.759Z,6.07
2019-05-18T03:47:01.413Z,6.20
2019-05-18T03:49:31.055Z,6.10
2019-05-18T03:52:00.713Z,5.70
2019-05-18T03:54:30.555Z,6.60
2019-05-18T03:57:00.403Z,6.33
2019-05-18T03:59:30.232Z,6.43
2019-05-18T04:01:59.849Z,6.30
2019-05-18T04:04:29.485Z,6.17
2019-05-18T04:07:01.802Z,6.20
2019-05-18T04:09:31.431Z,5.70
2019-05-18T04:12:01.203Z,5.80
2019-05-18T04:14:30.799Z,5.90
2019-05-18T04:17:00.451Z,6.43
2019-05-18T04:19:44.755Z,5.80
2019-05-18T04:22:01.530Z,6.40
2019-05-18T04:24:31.090Z,6.20
2019-05-18T04:27:00.623Z,6.50
2019-05-18T04:29:30.365Z,5.57
2019-05-18T04:32:18.986Z,5.83
2019-05-18T04:34:48.823Z,5.47
2019-05-18T04:37:18.665Z,5.50
2019-05-18T04:39:48.202Z,5.30
2019-05-18T04:42:17.824Z,6.00
2019-05-18T04:44:47.477Z,6.30
2019-05-18T04:47:17.147Z,6.20
2019-05-18T04:50:03.947Z,5.73
2019-05-18T04:52:18.004Z,6.13
2019-05-18T04:54:47.866Z,6.03
2019-05-18T04:57:17.582Z,6.00
2019-05-18T04:59:47.267Z,6.60
2019-05-18T05:02:16.912Z,6.40
2019-05-18T05:04:46.539Z,6.57
2019-05-18T05:07:16.188Z,6.53
2019-05-18T05:09:45.795Z,6.33
2019-05-18T05:12:15.357Z,5.97
2019-05-18T05:14:44.937Z,7.40
2019-05-18T05:17:14.654Z,7.10
2019-05-18T05:19:44.180Z,5.30
2019-05-18T05:22:13.966Z,5.27
2019-05-18T05:24:43.579Z,5.67
2019-05-18T05:27:13.293Z,5.43
2019-05-18T05:29:42.919Z,5.40
2019-05-18T05:32:12.486Z,4.53
2019-05-18T05:34:42.223Z,4.80
2019-05-18T05:37:12.032Z,4.97
2019-05-18T05:39:41.715Z,5.07
2019-05-18T05:42:11.262Z,5.10
2019-05-18T05:44:40.809Z,4.87
2019-05-18T05:47:10.355Z,5.10
2019-05-18T05:49:39.967Z,5.27
2019-05-18T05:52:09.515Z,5.33
2019-05-18T05:54:39.103Z,5.20
2019-05-18T05:57:08.887Z,4.83
2019-05-18T05:59:38.573Z,5.03
2019-05-18T06:02:08.173Z,5.10
2019-05-18T06:04:37.949Z,5.20
2019-05-18T06:07:07.677Z,4.57
2019-05-18T06:09:37.373Z,4.70
2019-05-18T06:12:06.979Z,4.37
2019-05-18T06:14:36.607Z,4.37
2019-05-18T06:17:08.399Z,4.60
2019-05-18T06:19:37.623Z,4.67
2019-05-18T06:22:07.341Z,4.30
2019-05-18T06:24:36.881Z,4.43
2019-05-18T06:27:06.728Z,4.30
2019-05-18T06:29:36.590Z,4.63
2019-05-18T06:32:06.201Z,4.30
2019-05-18T06:34:35.868Z,3.87
2019-05-18T06:37:05.533Z,3.80
2019-05-18T06:39:35.291Z,4.10
2019-05-18T06:42:05.019Z,4.00
2019-05-18T06:44:34.877Z,3.70
2019-05-18T06:47:04.715Z,3.80
2019-05-18T06:49:34.356Z,4.13
2019-05-18T06:52:04.080Z,3.73
2019-05-18T06:54:33.708Z,3.60
2019-05-18T06:57:03.789Z,3.80
2019-05-18T06:59:34.063Z,3.83
2019-05-18T07:02:03.696Z,3.73
2019-05-18T07:04:33.347Z,3.80
2019-05-18T07:07:02.911Z,3.50
2019-05-18T07:09:32.589Z,3.60
2019-05-18T07:12:02.269Z,3.20
2019-05-18T07:14:31.889Z,3.60
2019-05-18T07:17:01.521Z,3.70
2019-05-18T07:19:31.209Z,3.70
2019-05-18T07:22:00.865Z,3.50
2019-05-18T07:24:30.628Z,3.60
2019-05-18T07:27:00.342Z,3.60
2019-05-18T07:29:30.227Z,3.80
2019-05-18T07:31:59.901Z,4.30
2019-05-18T07:34:29.486Z,4.50
2019-05-18T07:36:59.059Z,3.57
2019-05-18T07:39:28.852Z,3.73
2019-05-18T07:41:58.580Z,4.07
2019-05-18T07:44:28.231Z,3.60
2019-05-18T07:46:57.836Z,3.77
2019-05-18T07:49:27.505Z,3.70
2019-05-18T07:52:17.368Z,3.43
2019-05-18T07:54:47.206Z,3.63
2019-05-18T07:57:16.814Z,4.07
2019-05-18T07:59:46.471Z,3.80
2019-05-18T08:02:15.978Z,3.23
2019-05-18T08:04:45.712Z,3.50
2019-05-18T08:07:15.444Z,3.70
2019-05-18T08:09:45.162Z,3.70
2019-05-18T08:12:14.680Z,3.20
2019-05-18T08:14:44.319Z,3.83
2019-05-18T08:17:13.832Z,4.00
2019-05-18T08:19:43.360Z,3.83
2019-05-18T08:22:13.114Z,3.80
2019-05-18T08:24:42.767Z,3.77
2019-05-18T08:27:12.343Z,4.27
2019-05-18T08:29:41.883Z,3.97
2019-05-18T08:32:11.630Z,4.00
2019-05-18T08:34:41.182Z,3.37
2019-05-18T08:37:10.791Z,4.33
2019-05-18T08:39:40.588Z,3.80
2019-05-18T08:42:10.109Z,4.43
2019-05-18T08:44:39.863Z,4.17
2019-05-18T08:47:09.430Z,4.20
2019-05-18T08:49:39.211Z,3.70
2019-05-18T08:52:09.133Z,11.20
2019-05-18T08:54:38.718Z,3.57
2019-05-18T08:57:08.429Z,3.43
2019-05-18T08:59:39.894Z,3.40
2019-05-18T09:02:09.338Z,3.10
2019-05-18T09:04:39.082Z,2.97
2019-05-18T09:07:08.677Z,2.47
2019-05-18T09:09:38.387Z,2.60
2019-05-18T09:12:08.045Z,11.47
2019-05-18T09:14:37.751Z,2.27
2019-05-18T09:17:07.349Z,2.80
2019-05-18T09:19:37.076Z,2.57
2019-05-18T09:22:06.713Z,2.30
2019-05-18T09:24:36.467Z,2.63
2019-05-18T09:27:06.221Z,2.77
2019-05-18T09:29:35.918Z,2.37
2019-05-18T09:32:05.551Z,2.67
2019-05-18T09:34:35.190Z,2.50
2019-05-18T09:37:04.834Z,2.10
2019-05-18T09:39:34.535Z,2.50
2019-05-18T09:42:04.101Z,2.10
2019-05-18T09:44:33.938Z,2.13
2019-05-18T09:47:03.517Z,1.90
2019-05-18T09:49:33.145Z,2.17
2019-05-18T09:52:02.852Z,2.10
2019-05-18T09:54:32.515Z,2.10
2019-05-18T09:57:02.058Z,2.30
2019-05-18T09:59:31.564Z,2.57
2019-05-18T10:02:01.135Z,2.23
2019-05-18T10:04:31.000Z,1.93
2019-05-18T10:07:00.679Z,2.10
2019-05-18T10:09:38.883Z,1.53
2019-05-18T10:12:01.789Z,1.50
2019-05-18T10:14:31.531Z,1.67
2019-05-18T10:17:01.177Z,1.50
2019-05-18T10:19:31.030Z,2.00
2019-05-18T10:22:00.642Z,1.80
2019-05-18T10:24:30.300Z,1.60
2019-05-18T10:27:00.177Z,2.00
2019-05-18T10:29:29.799Z,1.80
2019-05-18T10:31:59.582Z,1.70
2019-05-18T10:34:29.136Z,2.17
2019-05-18T10:36:58.797Z,1.80
2019-05-18T10:39:28.420Z,1.80
2019-05-18T10:41:58.022Z,1.53
2019-05-18T10:44:27.652Z,1.80
2019-05-18T10:46:57.431Z,1.60
2019-05-18T10:49:46.004Z,1.60
2019-05-18T10:52:15.577Z,1.43
2019-05-18T10:55:04.152Z,1.53
2019-05-18T10:57:33.937Z,1.50
2019-05-18T11:00:22.580Z,1.60
2019-05-18T11:02:52.234Z,1.40
2019-05-18T11:05:21.878Z,1.60
2019-05-18T11:07:51.788Z,1.97
2019-05-18T11:10:22.269Z,1.50
2019-05-18T11:12:52.109Z,1.50
2019-05-18T11:15:22.053Z,1.70
2019-05-18T11:17:51.792Z,1.60
2019-05-18T11:20:21.655Z,1.47
2019-05-18T11:22:51.204Z,1.43
2019-05-18T11:25:21.147Z,2.30
2019-05-18T11:27:50.895Z,1.57
2019-05-18T11:30:22.440Z,2.00
2019-05-18T11:32:52.138Z,1.47
2019-05-18T11:35:21.887Z,1.40
2019-05-18T11:37:51.650Z,1.57
2019-05-18T11:40:21.681Z,1.30
2019-05-18T11:42:51.530Z,1.47
2019-05-18T11:45:22.572Z,1.57
2019-05-18T11:47:52.214Z,1.40
2019-05-18T11:50:22.377Z,1.57
2019-05-18T11:52:52.077Z,1.47
2019-05-18T11:55:22.168Z,1.83
2019-05-18T11:57:51.907Z,1.37
2019-05-18T12:00:22.251Z,1.27
2019-05-18T12:02:51.812Z,1.47
2019-05-18T12:05:21.560Z,1.47
2019-05-18T12:07:51.248Z,1.30
2019-05-18T12:10:21.113Z,1.20
2019-05-18T12:12:50.987Z,1.23
2019-05-18T12:15:21.256Z,1.23
2019-05-18T12:17:51.109Z,1.43
2019-05-18T12:20:21.147Z,1.20
2019-05-18T12:22:50.868Z,1.73
2019-05-18T12:25:20.639Z,1.30
2019-05-18T12:27:50.357Z,1.40
2019-05-18T12:30:20.220Z,1.37
2019-05-18T12:32:49.779Z,1.60
2019-05-18T12:35:19.443Z,1.40
2019-05-18T12:37:49.218Z,1.40
2019-05-18T12:40:21.163Z,1.40
2019-05-18T12:42:50.813Z,2.13
2019-05-18T12:45:22.267Z,1.53
2019-05-18T12:47:52.149Z,1.40
2019-05-18T12:50:22.699Z,1.60
2019-05-18T12:52:52.263Z,2.40
2019-05-18T12:55:22.083Z,1.50
2019-05-18T12:57:51.831Z,2.63
2019-05-18T13:00:22.262Z,1.50
2019-05-18T13:02:51.988Z,1.50
2019-05-18T13:05:21.887Z,1.70
2019-05-18T13:07:51.699Z,1.67
2019-05-18T13:10:21.987Z,1.70
2019-05-18T13:12:51.504Z,1.50
2019-05-18T13:15:21.560Z,1.73
2019-05-18T13:17:51.251Z,2.07
2019-05-18T13:20:21.159Z,1.77
2019-05-18T13:22:51.453Z,1.40
2019-05-18T13:25:21.185Z,1.10
2019-05-18T13:27:50.725Z,1.60
2019-05-18T13:30:21.870Z,2.03
2019-05-18T13:32:51.687Z,1.50
2019-05-18T13:35:21.620Z,2.53
2019-05-18T13:37:51.294Z,1.93
2019-05-18T13:40:20.934Z,2.40
2019-05-18T13:42:50.593Z,1.57
2019-05-18T13:45:20.636Z,1.70
2019-05-18T13:47:50.328Z,2.00
2019-05-18T13:50:20.431Z,2.00
2019-05-18T13:52:50.468Z,1.83
2019-05-18T13:55:20.131Z,2.40
2019-05-18T13:57:49.790Z,2.40
2019-05-18T14:00:20.559Z,4.00
2019-05-18T14:02:50.586Z,1.50
2019-05-18T14:05:20.662Z,1.80
2019-05-18T14:07:50.393Z,1.60
2019-05-18T14:10:20.245Z,1.80
2019-05-18T14:12:50.073Z,3.77
2019-05-18T14:15:22.757Z,3.07
2019-05-18T14:17:51.291Z,2.00
2019-05-18T14:20:21.026Z,1.83
2019-05-18T14:22:50.868Z,4.50
2019-05-18T14:25:20.721Z,3.77
2019-05-18T14:27:50.522Z,3.63
2019-05-18T14:30:20.654Z,2.83
2019-05-18T14:32:50.354Z,1.70
2019-05-18T14:35:20.076Z,2.00
2019-05-18T14:37:49.874Z,3.17
2019-05-18T14:40:19.796Z,1.80
2019-05-18T14:42:49.448Z,2.00
2019-05-18T14:45:19.532Z,1.90
2019-05-18T14:47:49.052Z,3.37
2019-05-18T14:50:19.112Z,2.00
2019-05-18T14:52:48.710Z,1.90
2019-05-18T14:55:31.404Z,2.03
2019-05-18T14:57:50.275Z,2.00
2019-05-18T15:00:20.188Z,2.00
2019-05-18T15:02:49.940Z,2.00
2019-05-18T15:05:20.094Z,1.83
2019-05-18T15:07:49.762Z,1.60
2019-05-18T15:10:19.836Z,1.80
2019-05-18T15:12:49.420Z,2.47
2019-05-18T15:15:19.898Z,2.10
2019-05-18T15:17:49.569Z,2.10
2019-05-18T15:20:19.444Z,3.07
2019-05-18T15:22:49.038Z,2.13
2019-05-18T15:25:18.766Z,3.17
2019-05-18T15:27:48.301Z,1.80
2019-05-18T15:30:18.293Z,1.83
2019-05-18T15:32:47.963Z,1.90
2019-05-18T15:35:17.789Z,1.90
2019-05-18T15:37:47.608Z,1.77
2019-05-18T15:40:17.369Z,3.10
2019-05-18T15:42:46.993Z,5.10
2019-05-18T15:45:17.053Z,4.80
2019-05-18T15:47:46.806Z,9.03
2019-05-18T15:50:17.791Z,6.87
2019-05-18T15:52:47.528Z,6.07
2019-05-18T15:55:17.597Z,4.17
2019-05-18T15:57:47.236Z,2.10
2019-05-18T16:00:17.558Z,3.27
2019-05-18T16:02:47.270Z,1.83
2019-05-18T16:05:17.214Z,2.00
2019-05-18T16:07:46.754Z,2.07
2019-05-18T16:10:16.794Z,1.80
2019-05-18T16:12:46.437Z,1.80
2019-05-18T16:15:16.124Z,1.97
2019-05-18T16:17:45.712Z,2.20
2019-05-18T16:20:15.962Z,2.23
2019-05-18T16:22:45.703Z,2.07
2019-05-18T16:25:17.536Z,2.10
2019-05-18T16:27:47.464Z,3.47
2019-05-18T16:30:17.578Z,2.10
2019-05-18T16:32:47.121Z,1.80
2019-05-18T16:35:16.857Z,2.20
2019-05-18T16:37:46.465Z,2.00
2019-05-18T16:40:16.453Z,2.10
2019-05-18T16:42:46.788Z,3.30
2019-05-18T16:45:17.111Z,2.17
2019-05-18T16:47:46.974Z,2.83
2019-05-18T16:50:18.175Z,2.00
2019-05-18T16:52:47.785Z,2.13
2019-05-18T16:55:17.823Z,2.10
2019-05-18T16:57:47.392Z,2.23
2019-05-18T17:00:17.597Z,2.20
2019-05-18T17:02:47.509Z,2.37
2019-05-18T17:05:17.473Z,3.23
2019-05-18T17:07:47.265Z,4.10
2019-05-18T17:10:17.208Z,4.73
2019-05-18T17:12:46.823Z,2.50
2019-05-18T17:15:17.121Z,2.27
2019-05-18T17:17:46.900Z,2.17
2019-05-18T17:20:17.791Z,2.40
2019-05-18T17:22:47.548Z,3.30
2019-05-18T17:25:17.447Z,2.63
2019-05-18T17:27:47.180Z,2.60
2019-05-18T17:30:17.281Z,2.53
2019-05-18T17:32:46.862Z,2.27
2019-05-18T17:35:16.783Z,2.80
2019-05-18T17:37:46.649Z,2.00
2019-05-18T17:40:16.572Z,2.30
2019-05-18T17:42:46.195Z,1.97
2019-05-18T17:45:16.022Z,1.90
2019-05-18T17:47:45.979Z,2.10
2019-05-18T17:50:15.939Z,1.80
2019-05-18T17:52:45.443Z,1.87
2019-05-18T17:55:16.426Z,2.10
2019-05-18T17:57:46.218Z,2.03
2019-05-18T18:00:16.486Z,2.10
2019-05-18T18:02:48.123Z,2.87
2019-05-18T18:05:17.598Z,2.90
2019-05-18T18:07:47.292Z,3.13
2019-05-18T18:10:17.903Z,2.30
2019-05-18T18:12:47.475Z,3.40
2019-05-18T18:15:17.286Z,3.23
2019-05-18T18:17:46.923Z,2.80
2019-05-18T18:20:17.049Z,2.60
2019-05-18T18:22:46.774Z,2.30
2019-05-18T18:25:16.568Z,2.43
2019-05-18T18:27:46.302Z,3.10
2019-05-18T18:30:16.459Z,3.37
2019-05-18T18:32:46.236Z,3.23
2019-05-18T18:35:15.895Z,3.13
2019-05-18T18:37:45.742Z,2.37
2019-05-18T18:40:15.591Z,2.87
2019-05-18T18:42:45.252Z,2.20
2019-05-18T18:45:15.489Z,2.27
2019-05-18T18:47:45.219Z,2.13
2019-05-18T18:50:15.241Z,1.93
2019-05-18T18:52:45.037Z,2.30
2019-05-18T18:55:15.175Z,2.13
2019-05-18T18:57:44.898Z,2.73
2019-05-18T19:00:16.198Z,2.27
2019-05-18T19:02:45.728Z,2.60
2019-05-18T19:05:15.726Z,2.70
2019-05-18T19:07:45.533Z,2.93
2019-05-18T19:10:15.767Z,3.00
2019-05-18T19:12:45.340Z,3.10
2019-05-18T19:15:15.155Z,3.60
2019-05-18T19:17:44.910Z,3.10
2019-05-18T19:20:14.865Z,3.20
2019-05-18T19:22:44.707Z,3.23
2019-05-18T19:25:14.874Z,2.60
2019-05-18T19:27:54.503Z,3.00
2019-05-18T19:30:16.907Z,2.97
2019-05-18T19:32:46.555Z,3.00
2019-05-18T19:35:16.172Z,3.27
2019-05-18T19:37:45.877Z,3.57
2019-05-18T19:40:17.347Z,3.80
2019-05-18T19:42:47.143Z,56.13
2019-05-18T19:45:16.983Z,89.90
2019-05-18T19:47:46.791Z,74.20
2019-05-18T19:50:16.631Z,75.40
2019-05-18T19:52:46.311Z,75.13
2019-05-18T19:55:16.032Z,58.20
2019-05-18T19:57:45.957Z,20.43
2019-05-18T20:00:16.284Z,13.37
2019-05-18T20:02:46.165Z,10.43
2019-05-18T20:05:15.927Z,6.27
2019-05-18T20:07:45.668Z,5.73
2019-05-18T20:10:15.960Z,5.50
2019-05-18T20:12:45.638Z,5.40
2019-05-18T20:15:15.818Z,6.53
2019-05-18T20:17:45.455Z,6.07
2019-05-18T20:20:16.538Z,5.50
2019-05-18T20:22:46.275Z,5.37
2019-05-18T20:25:16.014Z,4.60
2019-05-18T20:27:45.759Z,3.90
2019-05-18T20:30:17.492Z,4.00
2019-05-18T20:32:47.149Z,4.70
2019-05-18T20:35:17.179Z,4.33
2019-05-18T20:37:46.841Z,3.50
2019-05-18T20:40:16.839Z,4.27
2019-05-18T20:42:46.480Z,3.83
2019-05-18T20:45:16.355Z,3.67
2019-05-18T20:47:46.000Z,4.47
2019-05-18T20:50:16.477Z,4.00
2019-05-18T20:52:46.263Z,3.77
2019-05-18T20:55:16.011Z,5.43
2019-05-18T20:57:45.532Z,4.43
2019-05-18T21:00:16.164Z,5.43
2019-05-18T21:02:45.775Z,5.40
2019-05-18T21:05:16.052Z,9.37
2019-05-18T21:07:45.711Z,6.10
2019-05-18T21:10:15.595Z,6.27
2019-05-18T21:12:45.210Z,5.53
2019-05-18T21:15:15.675Z,5.53
2019-05-18T21:17:45.271Z,5.43
2019-05-18T21:20:15.081Z,5.47
2019-05-18T21:22:44.899Z,5.20
2019-05-18T21:25:14.546Z,5.07
2019-05-18T21:27:44.393Z,5.27
2019-05-18T21:30:14.689Z,6.00
2019-05-18T21:32:44.352Z,5.63
2019-05-18T21:35:13.985Z,5.70
2019-05-18T21:37:43.636Z,5.27
2019-05-18T21:40:13.790Z,5.13
2019-05-18T21:42:43.316Z,4.70
2019-05-18T21:45:13.233Z,4.73
2019-05-18T21:47:42.936Z,6.40
2019-05-18T21:50:12.828Z,7.40
2019-05-18T21:52:42.722Z,7.27
2019-05-18T21:55:12.724Z,6.47
2019-05-18T21:57:42.462Z,5.93
2019-05-18T22:00:12.608Z,5.37
2019-05-18T22:02:42.430Z,5.17
2019-05-18T22:05:12.330Z,6.10
2019-05-18T22:07:41.944Z,4.90
2019-05-18T22:10:24.869Z,5.23
2019-05-18T22:12:43.556Z,4.77
2019-05-18T22:15:14.706Z,4.50
2019-05-18T22:18:01.999Z,4.77
2019-05-18T22:20:31.946Z,4.90
2019-05-18T22:23:01.591Z,5.00
2019-05-18T22:25:31.437Z,6.43
2019-05-18T22:28:01.399Z,6.60
2019-05-18T22:30:31.112Z,6.90
2019-05-18T22:33:00.658Z,6.70
2019-05-18T22:35:30.291Z,5.70
2019-05-18T22:37:59.775Z,5.20
2019-05-18T22:40:29.341Z,5.00
2019-05-18T22:42:59.278Z,5.70
2019-05-18T22:45:28.907Z,5.20
2019-05-18T22:47:58.622Z,4.43
2019-05-18T22:50:28.313Z,4.50
2019-05-18T22:52:58.049Z,4.63
2019-05-18T22:55:27.679Z,4.30
2019-05-18T22:57:57.241Z,4.40
2019-05-18T23:00:26.865Z,4.40
2019-05-18T23:02:56.451Z,4.73
2019-05-18T23:05:26.075Z,4.70
2019-05-18T23:07:55.773Z,4.83
2019-05-18T23:10:25.443Z,5.00
2019-05-18T23:12:54.992Z,4.87
2019-05-18T23:15:24.649Z,4.57
2019-05-18T23:17:54.211Z,4.90
2019-05-18T23:20:23.815Z,5.03
2019-05-18T23:22:53.467Z,5.17
2019-05-18T23:25:23.325Z,5.07
2019-05-18T23:27:53.068Z,5.00
2019-05-18T23:30:22.571Z,5.10
2019-05-18T23:32:52.077Z,5.37
2019-05-18T23:35:21.771Z,5.13
2019-05-18T23:37:51.375Z,5.63
2019-05-18T23:40:21.519Z,6.10
2019-05-18T23:42:51.115Z,5.73
2019-05-18T23:45:20.721Z,5.40
2019-05-18T23:47:50.508Z,5.60
2019-05-18T23:50:20.042Z,6.00
2019-05-18T23:52:49.810Z,6.17
2019-05-18T23:55:19.460Z,8.20
2019-05-18T23:57:49.045Z,8.00
